sensor_id;sensor_type;location;lat;lon;timestamp;P1;durP1;ratioP1;P2;durP2;ratioP2
36715;SDS011;22699;51.034;3.730;2022-09-03T00:01:07;15.95;;;10.90;;
36715;SDS011;22699;51.034;3.730;2022-09-03T00:03:42;11.30;;;10.13;;
36715;SDS011;22699;51.034;3.730;2022-09-03T00:06:22;10.90;;;9.88;;
36715;SDS011;22699;51.034;3.730;2022-09-03T00:09:19;12.13;;;10.48;;
36715;SDS011;22699;51.034;3.730;2022-09-03T00:11:52;13.43;;;10.70;;
36715;SDS011;22699;51.034;3.730;2022-09-03T00:14:26;12.60;;;11.35;;
36715;SDS011;22699;51.034;3.730;2022-09-03T00:17:31;12.00;;;10.80;;
36715;SDS011;22699;51.034;3.730;2022-09-03T00:20:52;13.27;;;11.35;;
36715;SDS011;22699;51.034;3.730;2022-09-03T00:22:54;12.30;;;10.88;;
36715;SDS011;22699;51.034;3.730;2022-09-03T00:25:28;11.13;;;10.10;;
36715;SDS011;22699;51.034;3.730;2022-09-03T00:28:10;13.00;;;11.68;;
36715;SDS011;22699;51.034;3.730;2022-09-03T00:30:42;12.38;;;11.05;;
36715;SDS011;22699;51.034;3.730;2022-09-03T00:33:17;11.90;;;10.75;;
36715;SDS011;22699;51.034;3.730;2022-09-03T00:36:10;11.85;;;10.75;;
36715;SDS011;22699;51.034;3.730;2022-09-03T00:38:44;13.52;;;12.13;;
36715;SDS011;22699;51.034;3.730;2022-09-03T00:49:23;14.05;;;12.63;;
36715;SDS011;22699;51.034;3.730;2022-09-03T00:54:32;13.98;;;11.48;;
36715;SDS011;22699;51.034;3.730;2022-09-03T01:02:26;14.07;;;12.68;;
36715;SDS011;22699;51.034;3.730;2022-09-03T01:05:02;14.10;;;12.68;;
36715;SDS011;22699;51.034;3.730;2022-09-03T01:08:08;15.90;;;14.20;;
36715;SDS011;22699;51.034;3.730;2022-09-03T01:19:19;14.57;;;12.60;;
36715;SDS011;22699;51.034;3.730;2022-09-03T01:25:11;13.27;;;11.70;;
36715;SDS011;22699;51.034;3.730;2022-09-03T01:30:44;13.43;;;12.13;;
36715;SDS011;22699;51.034;3.730;2022-09-03T01:33:43;13.57;;;11.95;;
36715;SDS011;22699;51.034;3.730;2022-09-03T01:36:31;11.93;;;10.73;;
36715;SDS011;22699;51.034;3.730;2022-09-03T01:40:03;12.65;;;11.35;;
36715;SDS011;22699;51.034;3.730;2022-09-03T01:45:00;11.35;;;10.13;;
36715;SDS011;22699;51.034;3.730;2022-09-03T01:50:29;11.73;;;10.63;;
36715;SDS011;22699;51.034;3.730;2022-09-03T01:53:09;12.13;;;10.98;;
36715;SDS011;22699;51.034;3.730;2022-09-03T01:55:55;11.77;;;10.45;;
36715;SDS011;22699;51.034;3.730;2022-09-03T01:58:48;10.65;;;9.65;;
36715;SDS011;22699;51.034;3.730;2022-09-03T02:01:29;11.30;;;9.98;;
36715;SDS011;22699;51.034;3.730;2022-09-03T02:03:59;12.10;;;11.00;;
36715;SDS011;22699;51.034;3.730;2022-09-03T02:08:58;13.35;;;11.40;;
36715;SDS011;22699;51.034;3.730;2022-09-03T02:13:53;12.02;;;10.65;;
36715;SDS011;22699;51.034;3.730;2022-09-03T02:16:24;11.93;;;10.60;;
36715;SDS011;22699;51.034;3.730;2022-09-03T02:19:01;12.82;;;11.63;;
36715;SDS011;22699;51.034;3.730;2022-09-03T02:21:32;11.48;;;10.35;;
36715;SDS011;22699;51.034;3.730;2022-09-03T02:24:02;12.85;;;11.32;;
36715;SDS011;22699;51.034;3.730;2022-09-03T02:26:29;12.25;;;10.98;;
36715;SDS011;22699;51.034;3.730;2022-09-03T02:28:55;11.65;;;10.48;;
36715;SDS011;22699;51.034;3.730;2022-09-03T02:31:22;12.02;;;10.77;;
36715;SDS011;22699;51.034;3.730;2022-09-03T02:33:48;13.15;;;11.68;;
36715;SDS011;22699;51.034;3.730;2022-09-03T02:36:15;12.50;;;11.30;;
36715;SDS011;22699;51.034;3.730;2022-09-03T02:38:50;13.77;;;11.33;;
36715;SDS011;22699;51.034;3.730;2022-09-03T02:41:15;11.20;;;10.10;;
36715;SDS011;22699;51.034;3.730;2022-09-03T02:43:53;14.45;;;12.20;;
36715;SDS011;22699;51.034;3.730;2022-09-03T02:48:52;13.10;;;11.90;;
36715;SDS011;22699;51.034;3.730;2022-09-03T02:51:19;12.73;;;11.43;;
36715;SDS011;22699;51.034;3.730;2022-09-03T02:53:45;12.70;;;11.45;;
36715;SDS011;22699;51.034;3.730;2022-09-03T02:56:11;13.07;;;11.68;;
36715;SDS011;22699;51.034;3.730;2022-09-03T02:58:37;11.80;;;10.70;;
36715;SDS011;22699;51.034;3.730;2022-09-03T03:01:05;14.27;;;12.05;;
36715;SDS011;22699;51.034;3.730;2022-09-03T03:03:31;13.20;;;11.50;;
36715;SDS011;22699;51.034;3.730;2022-09-03T03:05:59;12.43;;;11.15;;
36715;SDS011;22699;51.034;3.730;2022-09-03T03:08:27;13.02;;;11.75;;
36715;SDS011;22699;51.034;3.730;2022-09-03T03:10:54;12.60;;;11.45;;
36715;SDS011;22699;51.034;3.730;2022-09-03T03:13:23;11.88;;;10.68;;
36715;SDS011;22699;51.034;3.730;2022-09-03T03:15:49;16.52;;;11.77;;
36715;SDS011;22699;51.034;3.730;2022-09-03T03:18:15;11.15;;;10.15;;
36715;SDS011;22699;51.034;3.730;2022-09-03T03:20:41;12.25;;;10.93;;
36715;SDS011;22699;51.034;3.730;2022-09-03T03:23:08;12.07;;;10.88;;
36715;SDS011;22699;51.034;3.730;2022-09-03T03:25:34;11.20;;;10.15;;
36715;SDS011;22699;51.034;3.730;2022-09-03T03:28:02;11.70;;;10.55;;
36715;SDS011;22699;51.034;3.730;2022-09-03T03:30:29;10.43;;;9.52;;
36715;SDS011;22699;51.034;3.730;2022-09-03T03:32:55;12.23;;;11.00;;
36715;SDS011;22699;51.034;3.730;2022-09-03T03:35:21;12.00;;;10.23;;
36715;SDS011;22699;51.034;3.730;2022-09-03T03:37:47;11.70;;;10.13;;
36715;SDS011;22699;51.034;3.730;2022-09-03T03:40:13;13.05;;;10.43;;
36715;SDS011;22699;51.034;3.730;2022-09-03T03:42:40;12.25;;;10.50;;
36715;SDS011;22699;51.034;3.730;2022-09-03T03:45:06;12.25;;;10.65;;
36715;SDS011;22699;51.034;3.730;2022-09-03T03:47:33;11.80;;;10.70;;
36715;SDS011;22699;51.034;3.730;2022-09-03T03:50:00;12.15;;;10.63;;
36715;SDS011;22699;51.034;3.730;2022-09-03T03:52:26;11.40;;;10.15;;
36715;SDS011;22699;51.034;3.730;2022-09-03T03:54:52;12.77;;;11.45;;
36715;SDS011;22699;51.034;3.730;2022-09-03T03:57:18;9.88;;;8.98;;
36715;SDS011;22699;51.034;3.730;2022-09-03T03:59:45;11.73;;;9.93;;
36715;SDS011;22699;51.034;3.730;2022-09-03T04:02:11;11.48;;;10.07;;
36715;SDS011;22699;51.034;3.730;2022-09-03T04:04:38;10.52;;;9.52;;
36715;SDS011;22699;51.034;3.730;2022-09-03T04:07:03;9.95;;;8.95;;
36715;SDS011;22699;51.034;3.730;2022-09-03T04:09:29;10.35;;;9.38;;
36715;SDS011;22699;51.034;3.730;2022-09-03T04:11:55;13.27;;;9.73;;
36715;SDS011;22699;51.034;3.730;2022-09-03T04:14:22;9.90;;;8.88;;
36715;SDS011;22699;51.034;3.730;2022-09-03T04:16:48;10.15;;;8.77;;
36715;SDS011;22699;51.034;3.730;2022-09-03T04:19:15;11.05;;;9.98;;
36715;SDS011;22699;51.034;3.730;2022-09-03T04:21:41;12.95;;;11.30;;
36715;SDS011;22699;51.034;3.730;2022-09-03T04:24:07;14.73;;;11.25;;
36715;SDS011;22699;51.034;3.730;2022-09-03T04:26:33;15.30;;;11.60;;
36715;SDS011;22699;51.034;3.730;2022-09-03T04:29:01;17.42;;;11.88;;
36715;SDS011;22699;51.034;3.730;2022-09-03T04:31:29;15.43;;;11.23;;
36715;SDS011;22699;51.034;3.730;2022-09-03T04:33:55;13.55;;;12.18;;
36715;SDS011;22699;51.034;3.730;2022-09-03T04:36:22;13.40;;;12.10;;
36715;SDS011;22699;51.034;3.730;2022-09-03T04:38:49;13.00;;;11.68;;
36715;SDS011;22699;51.034;3.730;2022-09-03T04:41:19;13.95;;;11.90;;
36715;SDS011;22699;51.034;3.730;2022-09-03T04:43:49;17.52;;;11.73;;
36715;SDS011;22699;51.034;3.730;2022-09-03T04:46:16;14.05;;;11.63;;
36715;SDS011;22699;51.034;3.730;2022-09-03T04:48:42;13.27;;;11.38;;
36715;SDS011;22699;51.034;3.730;2022-09-03T04:51:12;14.55;;;13.05;;
36715;SDS011;22699;51.034;3.730;2022-09-03T04:53:40;13.40;;;12.10;;
36715;SDS011;22699;51.034;3.730;2022-09-03T04:56:18;12.43;;;11.15;;
36715;SDS011;22699;51.034;3.730;2022-09-03T04:58:46;13.40;;;12.02;;
36715;SDS011;22699;51.034;3.730;2022-09-03T05:01:17;13.60;;;12.35;;
36715;SDS011;22699;51.034;3.730;2022-09-03T05:03:44;13.77;;;12.30;;
36715;SDS011;22699;51.034;3.730;2022-09-03T05:06:10;13.15;;;11.95;;
36715;SDS011;22699;51.034;3.730;2022-09-03T05:08:37;13.77;;;12.40;;
36715;SDS011;22699;51.034;3.730;2022-09-03T05:11:05;13.95;;;12.52;;
36715;SDS011;22699;51.034;3.730;2022-09-03T05:13:32;13.93;;;12.55;;
36715;SDS011;22699;51.034;3.730;2022-09-03T05:16:02;17.48;;;13.73;;
36715;SDS011;22699;51.034;3.730;2022-09-03T05:18:30;17.00;;;14.73;;
36715;SDS011;22699;51.034;3.730;2022-09-03T05:20:57;16.80;;;15.05;;
36715;SDS011;22699;51.034;3.730;2022-09-03T05:23:24;15.57;;;14.18;;
36715;SDS011;22699;51.034;3.730;2022-09-03T05:25:56;14.93;;;13.48;;
36715;SDS011;22699;51.034;3.730;2022-09-03T05:28:23;15.00;;;13.50;;
36715;SDS011;22699;51.034;3.730;2022-09-03T05:31:03;14.95;;;13.57;;
36715;SDS011;22699;51.034;3.730;2022-09-03T05:33:43;15.10;;;13.60;;
36715;SDS011;22699;51.034;3.730;2022-09-03T05:36:15;16.67;;;15.07;;
36715;SDS011;22699;51.034;3.730;2022-09-03T05:38:43;15.88;;;13.80;;
36715;SDS011;22699;51.034;3.730;2022-09-03T05:41:10;16.10;;;14.45;;
36715;SDS011;22699;51.034;3.730;2022-09-03T05:43:36;16.88;;;15.20;;
36715;SDS011;22699;51.034;3.730;2022-09-03T05:46:12;16.42;;;14.77;;
36715;SDS011;22699;51.034;3.730;2022-09-03T05:48:42;17.33;;;15.63;;
36715;SDS011;22699;51.034;3.730;2022-09-03T05:51:11;16.60;;;14.88;;
36715;SDS011;22699;51.034;3.730;2022-09-03T05:53:44;16.77;;;14.77;;
36715;SDS011;22699;51.034;3.730;2022-09-03T05:56:15;18.13;;;16.23;;
36715;SDS011;22699;51.034;3.730;2022-09-03T05:58:48;16.05;;;14.55;;
36715;SDS011;22699;51.034;3.730;2022-09-03T06:01:18;16.70;;;15.00;;
36715;SDS011;22699;51.034;3.730;2022-09-03T06:03:58;16.40;;;14.70;;
36715;SDS011;22699;51.034;3.730;2022-09-03T06:06:25;17.42;;;15.73;;
36715;SDS011;22699;51.034;3.730;2022-09-03T06:08:55;16.40;;;14.90;;
36715;SDS011;22699;51.034;3.730;2022-09-03T06:11:24;18.55;;;16.85;;
36715;SDS011;22699;51.034;3.730;2022-09-03T06:13:52;18.55;;;16.75;;
36715;SDS011;22699;51.034;3.730;2022-09-03T06:16:19;19.13;;;17.23;;
36715;SDS011;22699;51.034;3.730;2022-09-03T06:18:46;19.60;;;17.60;;
36715;SDS011;22699;51.034;3.730;2022-09-03T06:21:12;20.73;;;17.27;;
36715;SDS011;22699;51.034;3.730;2022-09-03T06:23:40;18.58;;;16.77;;
36715;SDS011;22699;51.034;3.730;2022-09-03T06:26:13;18.27;;;16.48;;
36715;SDS011;22699;51.034;3.730;2022-09-03T06:28:40;18.15;;;16.40;;
36715;SDS011;22699;51.034;3.730;2022-09-03T06:33:36;18.92;;;16.25;;
36715;SDS011;22699;51.034;3.730;2022-09-03T06:36:04;19.17;;;17.35;;
36715;SDS011;22699;51.034;3.730;2022-09-03T06:38:33;22.80;;;17.88;;
36715;SDS011;22699;51.034;3.730;2022-09-03T06:41:00;19.25;;;17.23;;
36715;SDS011;22699;51.034;3.730;2022-09-03T06:43:32;20.33;;;16.92;;
36715;SDS011;22699;51.034;3.730;2022-09-03T06:46:03;20.02;;;16.58;;
36715;SDS011;22699;51.034;3.730;2022-09-03T06:48:32;19.35;;;17.35;;
36715;SDS011;22699;51.034;3.730;2022-09-03T06:51:03;18.10;;;16.25;;
36715;SDS011;22699;51.034;3.730;2022-09-03T06:53:52;18.02;;;16.33;;
36715;SDS011;22699;51.034;3.730;2022-09-03T06:56:20;18.25;;;16.50;;
36715;SDS011;22699;51.034;3.730;2022-09-03T07:01:30;17.83;;;15.98;;
36715;SDS011;22699;51.034;3.730;2022-09-03T07:04:04;18.58;;;15.90;;
36715;SDS011;22699;51.034;3.730;2022-09-03T07:06:31;17.23;;;15.13;;
36715;SDS011;22699;51.034;3.730;2022-09-03T07:11:34;20.10;;;17.85;;
36715;SDS011;22699;51.034;3.730;2022-09-03T07:14:02;18.23;;;16.42;;
36715;SDS011;22699;51.034;3.730;2022-09-03T07:16:30;19.15;;;16.58;;
36715;SDS011;22699;51.034;3.730;2022-09-03T07:19:00;15.35;;;13.05;;
36715;SDS011;22699;51.034;3.730;2022-09-03T07:21:28;15.75;;;14.15;;
36715;SDS011;22699;51.034;3.730;2022-09-03T07:23:54;15.38;;;13.73;;
36715;SDS011;22699;51.034;3.730;2022-09-03T07:26:22;16.70;;;15.00;;
36715;SDS011;22699;51.034;3.730;2022-09-03T07:28:49;15.27;;;13.13;;
36715;SDS011;22699;51.034;3.730;2022-09-03T07:31:17;14.40;;;12.27;;
36715;SDS011;22699;51.034;3.730;2022-09-03T07:33:58;13.80;;;12.20;;
36715;SDS011;22699;51.034;3.730;2022-09-03T07:36:26;13.68;;;12.27;;
36715;SDS011;22699;51.034;3.730;2022-09-03T07:38:56;13.55;;;12.15;;
36715;SDS011;22699;51.034;3.730;2022-09-03T07:41:23;12.60;;;11.25;;
36715;SDS011;22699;51.034;3.730;2022-09-03T07:43:50;18.90;;;12.68;;
36715;SDS011;22699;51.034;3.730;2022-09-03T07:46:18;13.13;;;11.65;;
36715;SDS011;22699;51.034;3.730;2022-09-03T07:48:52;13.68;;;10.57;;
36715;SDS011;22699;51.034;3.730;2022-09-03T07:51:20;15.00;;;11.82;;
36715;SDS011;22699;51.034;3.730;2022-09-03T07:53:51;11.73;;;10.63;;
36715;SDS011;22699;51.034;3.730;2022-09-03T07:56:18;13.38;;;10.70;;
36715;SDS011;22699;51.034;3.730;2022-09-03T07:58:44;12.68;;;10.45;;
36715;SDS011;22699;51.034;3.730;2022-09-03T08:01:14;11.68;;;10.55;;
36715;SDS011;22699;51.034;3.730;2022-09-03T08:03:42;11.60;;;10.25;;
36715;SDS011;22699;51.034;3.730;2022-09-03T08:06:09;12.40;;;10.95;;
36715;SDS011;22699;51.034;3.730;2022-09-03T08:08:35;12.13;;;10.93;;
36715;SDS011;22699;51.034;3.730;2022-09-03T08:11:02;12.60;;;11.00;;
36715;SDS011;22699;51.034;3.730;2022-09-03T08:13:42;16.05;;;13.05;;
36715;SDS011;22699;51.034;3.730;2022-09-03T08:16:13;12.63;;;11.45;;
36715;SDS011;22699;51.034;3.730;2022-09-03T08:18:40;11.95;;;10.80;;
36715;SDS011;22699;51.034;3.730;2022-09-03T08:21:10;16.00;;;11.77;;
36715;SDS011;22699;51.034;3.730;2022-09-03T08:23:42;11.98;;;10.85;;
36715;SDS011;22699;51.034;3.730;2022-09-03T08:26:12;13.38;;;11.18;;
36715;SDS011;22699;51.034;3.730;2022-09-03T08:28:40;11.68;;;10.60;;
36715;SDS011;22699;51.034;3.730;2022-09-03T08:31:08;16.13;;;11.15;;
36715;SDS011;22699;51.034;3.730;2022-09-03T08:33:37;18.80;;;11.77;;
36715;SDS011;22699;51.034;3.730;2022-09-03T08:36:05;12.45;;;11.25;;
36715;SDS011;22699;51.034;3.730;2022-09-03T08:38:33;14.73;;;9.82;;
36715;SDS011;22699;51.034;3.730;2022-09-03T08:41:06;11.50;;;9.68;;
36715;SDS011;22699;51.034;3.730;2022-09-03T08:43:40;10.55;;;9.30;;
36715;SDS011;22699;51.034;3.730;2022-09-03T08:46:19;11.63;;;10.25;;
36715;SDS011;22699;51.034;3.730;2022-09-03T08:48:49;10.07;;;8.93;;
36715;SDS011;22699;51.034;3.730;2022-09-03T08:51:17;10.38;;;9.35;;
36715;SDS011;22699;51.034;3.730;2022-09-03T08:53:50;10.50;;;8.48;;
36715;SDS011;22699;51.034;3.730;2022-09-03T08:56:24;10.13;;;8.25;;
36715;SDS011;22699;51.034;3.730;2022-09-03T08:58:53;8.70;;;7.90;;
36715;SDS011;22699;51.034;3.730;2022-09-03T09:15:05;8.68;;;7.63;;
36715;SDS011;22699;51.034;3.730;2022-09-03T09:20:42;11.35;;;8.57;;
36715;SDS011;22699;51.034;3.730;2022-09-03T09:23:29;8.70;;;8.00;;
36715;SDS011;22699;51.034;3.730;2022-09-03T09:25:59;11.45;;;8.70;;
36715;SDS011;22699;51.034;3.730;2022-09-03T09:28:32;9.10;;;8.05;;
36715;SDS011;22699;51.034;3.730;2022-09-03T09:31:00;9.02;;;7.90;;
36715;SDS011;22699;51.034;3.730;2022-09-03T09:33:29;9.95;;;8.40;;
36715;SDS011;22699;51.034;3.730;2022-09-03T09:35:59;7.07;;;6.25;;
36715;SDS011;22699;51.034;3.730;2022-09-03T09:38:32;8.77;;;7.88;;
36715;SDS011;22699;51.034;3.730;2022-09-03T09:41:13;11.63;;;8.52;;
36715;SDS011;22699;51.034;3.730;2022-09-03T09:43:41;8.60;;;7.70;;
36715;SDS011;22699;51.034;3.730;2022-09-03T09:46:08;7.60;;;6.95;;
36715;SDS011;22699;51.034;3.730;2022-09-03T09:48:38;9.50;;;6.93;;
36715;SDS011;22699;51.034;3.730;2022-09-03T09:51:13;9.20;;;7.68;;
36715;SDS011;22699;51.034;3.730;2022-09-03T09:53:44;8.95;;;8.05;;
36715;SDS011;22699;51.034;3.730;2022-09-03T09:56:22;11.15;;;7.90;;
36715;SDS011;22699;51.034;3.730;2022-09-03T09:58:49;9.55;;;6.63;;
36715;SDS011;22699;51.034;3.730;2022-09-03T10:01:26;9.65;;;6.38;;
36715;SDS011;22699;51.034;3.730;2022-09-03T10:04:39;7.97;;;7.18;;
36715;SDS011;22699;51.034;3.730;2022-09-03T10:06:53;12.33;;;6.70;;
36715;SDS011;22699;51.034;3.730;2022-09-03T10:09:24;8.20;;;6.68;;
36715;SDS011;22699;51.034;3.730;2022-09-03T10:12:03;7.60;;;6.80;;
36715;SDS011;22699;51.034;3.730;2022-09-03T10:14:56;7.68;;;6.88;;
36715;SDS011;22699;51.034;3.730;2022-09-03T10:17:41;9.65;;;6.10;;
36715;SDS011;22699;51.034;3.730;2022-09-03T10:21:06;7.35;;;5.05;;
36715;SDS011;22699;51.034;3.730;2022-09-03T10:23:27;7.22;;;6.38;;
36715;SDS011;22699;51.034;3.730;2022-09-03T10:26:08;9.68;;;7.30;;
36715;SDS011;22699;51.034;3.730;2022-09-03T10:28:39;9.10;;;6.63;;
36715;SDS011;22699;51.034;3.730;2022-09-03T10:33:57;5.88;;;5.35;;
36715;SDS011;22699;51.034;3.730;2022-09-03T10:36:38;8.00;;;5.55;;
36715;SDS011;22699;51.034;3.730;2022-09-03T10:39:15;5.88;;;5.15;;
36715;SDS011;22699;51.034;3.730;2022-09-03T10:41:48;5.47;;;4.15;;
36715;SDS011;22699;51.034;3.730;2022-09-03T10:47:24;4.40;;;3.85;;
36715;SDS011;22699;51.034;3.730;2022-09-03T10:52:33;4.03;;;3.63;;
36715;SDS011;22699;51.034;3.730;2022-09-03T10:55:49;4.82;;;4.30;;
36715;SDS011;22699;51.034;3.730;2022-09-03T11:00:51;6.30;;;4.80;;
36715;SDS011;22699;51.034;3.730;2022-09-03T11:06:14;6.03;;;5.43;;
36715;SDS011;22699;51.034;3.730;2022-09-03T11:11:14;6.68;;;5.75;;
36715;SDS011;22699;51.034;3.730;2022-09-03T11:16:17;6.93;;;5.30;;
36715;SDS011;22699;51.034;3.730;2022-09-03T11:18:50;6.35;;;5.75;;
36715;SDS011;22699;51.034;3.730;2022-09-03T11:21:19;9.18;;;7.53;;
36715;SDS011;22699;51.034;3.730;2022-09-03T11:24:11;6.65;;;6.05;;
36715;SDS011;22699;51.034;3.730;2022-09-03T11:26:48;6.55;;;5.60;;
36715;SDS011;22699;51.034;3.730;2022-09-03T11:29:33;6.53;;;5.63;;
36715;SDS011;22699;51.034;3.730;2022-09-03T11:32:09;7.90;;;7.10;;
36715;SDS011;22699;51.034;3.730;2022-09-03T11:34:46;7.63;;;6.75;;
36715;SDS011;22699;51.034;3.730;2022-09-03T11:39:44;8.68;;;7.88;;
36715;SDS011;22699;51.034;3.730;2022-09-03T11:42:28;7.80;;;6.75;;
36715;SDS011;22699;51.034;3.730;2022-09-03T11:47:46;8.15;;;6.90;;
36715;SDS011;22699;51.034;3.730;2022-09-03T11:50:17;11.23;;;6.00;;
36715;SDS011;22699;51.034;3.730;2022-09-03T11:52:49;9.43;;;6.32;;
36715;SDS011;22699;51.034;3.730;2022-09-03T11:56:12;7.63;;;6.10;;
36715;SDS011;22699;51.034;3.730;2022-09-03T11:58:28;7.85;;;5.82;;
36715;SDS011;22699;51.034;3.730;2022-09-03T12:01:00;8.88;;;7.95;;
36715;SDS011;22699;51.034;3.730;2022-09-03T12:03:42;9.15;;;7.50;;
36715;SDS011;22699;51.034;3.730;2022-09-03T12:12:11;8.07;;;6.38;;
36715;SDS011;22699;51.034;3.730;2022-09-03T12:15:01;7.78;;;5.68;;
36715;SDS011;22699;51.034;3.730;2022-09-03T12:17:53;5.05;;;4.50;;
36715;SDS011;22699;51.034;3.730;2022-09-03T12:26:08;13.13;;;7.95;;
36715;SDS011;22699;51.034;3.730;2022-09-03T12:28:41;6.32;;;4.90;;
36715;SDS011;22699;51.034;3.730;2022-09-03T12:31:20;8.30;;;7.35;;
36715;SDS011;22699;51.034;3.730;2022-09-03T12:36:15;7.93;;;5.85;;
36715;SDS011;22699;51.034;3.730;2022-09-03T12:38:42;8.63;;;5.75;;
36715;SDS011;22699;51.034;3.730;2022-09-03T12:43:52;7.63;;;6.75;;
36715;SDS011;22699;51.034;3.730;2022-09-03T12:46:27;6.80;;;5.72;;
36715;SDS011;22699;51.034;3.730;2022-09-03T12:48:56;7.95;;;6.55;;
36715;SDS011;22699;51.034;3.730;2022-09-03T12:51:35;8.68;;;7.30;;
36715;SDS011;22699;51.034;3.730;2022-09-03T12:54:03;7.38;;;5.85;;
36715;SDS011;22699;51.034;3.730;2022-09-03T12:56:39;6.15;;;4.78;;
36715;SDS011;22699;51.034;3.730;2022-09-03T12:59:11;7.03;;;6.15;;
36715;SDS011;22699;51.034;3.730;2022-09-03T13:01:46;8.50;;;4.75;;
36715;SDS011;22699;51.034;3.730;2022-09-03T13:04:17;7.47;;;5.43;;
36715;SDS011;22699;51.034;3.730;2022-09-03T13:09:15;5.07;;;4.15;;
36715;SDS011;22699;51.034;3.730;2022-09-03T13:11:46;5.78;;;4.57;;
36715;SDS011;22699;51.034;3.730;2022-09-03T13:14:13;6.82;;;4.22;;
36715;SDS011;22699;51.034;3.730;2022-09-03T13:30:37;5.93;;;3.92;;
36715;SDS011;22699;51.034;3.730;2022-09-03T13:33:48;5.10;;;3.90;;
36715;SDS011;22699;51.034;3.730;2022-09-03T13:36:19;3.15;;;2.85;;
36715;SDS011;22699;51.034;3.730;2022-09-03T13:41:32;4.35;;;3.65;;
36715;SDS011;22699;51.034;3.730;2022-09-03T13:49:25;7.50;;;3.90;;
36715;SDS011;22699;51.034;3.730;2022-09-03T13:52:57;7.30;;;4.80;;
36715;SDS011;22699;51.034;3.730;2022-09-03T13:55:53;5.82;;;3.42;;
36715;SDS011;22699;51.034;3.730;2022-09-03T14:03:51;3.95;;;3.38;;
36715;SDS011;22699;51.034;3.730;2022-09-03T14:06:35;3.83;;;2.70;;
36715;SDS011;22699;51.034;3.730;2022-09-03T14:12:12;3.42;;;2.65;;
36715;SDS011;22699;51.034;3.730;2022-09-03T14:19:59;2.65;;;2.30;;
36715;SDS011;22699;51.034;3.730;2022-09-03T14:25:18;1.80;;;1.70;;
36715;SDS011;22699;51.034;3.730;2022-09-03T14:27:47;3.55;;;2.40;;
36715;SDS011;22699;51.034;3.730;2022-09-03T14:30:18;2.92;;;2.28;;
36715;SDS011;22699;51.034;3.730;2022-09-03T14:36:10;3.22;;;2.13;;
36715;SDS011;22699;51.034;3.730;2022-09-03T14:55:49;2.78;;;2.33;;
36715;SDS011;22699;51.034;3.730;2022-09-03T14:58:27;2.78;;;1.65;;
36715;SDS011;22699;51.034;3.730;2022-09-03T15:01:21;2.80;;;1.80;;
36715;SDS011;22699;51.034;3.730;2022-09-03T15:07:15;3.63;;;2.00;;
36715;SDS011;22699;51.034;3.730;2022-09-03T15:09:58;2.88;;;1.67;;
36715;SDS011;22699;51.034;3.730;2022-09-03T15:12:36;3.30;;;1.95;;
36715;SDS011;22699;51.034;3.730;2022-09-03T15:15:09;3.70;;;1.70;;
36715;SDS011;22699;51.034;3.730;2022-09-03T15:20:50;5.50;;;1.80;;
36715;SDS011;22699;51.034;3.730;2022-09-03T15:23:49;2.85;;;1.88;;
36715;SDS011;22699;51.034;3.730;2022-09-03T15:29:17;2.75;;;1.65;;
36715;SDS011;22699;51.034;3.730;2022-09-03T15:32:06;2.55;;;1.70;;
36715;SDS011;22699;51.034;3.730;2022-09-03T15:39:57;2.15;;;1.77;;
36715;SDS011;22699;51.034;3.730;2022-09-03T15:42:34;2.33;;;1.88;;
36715;SDS011;22699;51.034;3.730;2022-09-03T15:45:13;3.85;;;1.92;;
36715;SDS011;22699;51.034;3.730;2022-09-03T15:50:24;1.80;;;1.70;;
36715;SDS011;22699;51.034;3.730;2022-09-03T15:53:18;2.60;;;1.67;;
36715;SDS011;22699;51.034;3.730;2022-09-03T15:56:17;2.88;;;1.75;;
36715;SDS011;22699;51.034;3.730;2022-09-03T16:06:49;3.60;;;1.65;;
36715;SDS011;22699;51.034;3.730;2022-09-03T16:15:02;3.40;;;1.90;;
36715;SDS011;22699;51.034;3.730;2022-09-03T16:22:56;3.08;;;2.25;;
36715;SDS011;22699;51.034;3.730;2022-09-03T16:36:47;5.15;;;2.55;;
36715;SDS011;22699;51.034;3.730;2022-09-03T16:39:29;3.83;;;2.78;;
36715;SDS011;22699;51.034;3.730;2022-09-03T16:42:19;6.05;;;3.08;;
36715;SDS011;22699;51.034;3.730;2022-09-03T16:47:48;3.10;;;2.75;;
36715;SDS011;22699;51.034;3.730;2022-09-03T16:50:45;6.00;;;3.00;;
36715;SDS011;22699;51.034;3.730;2022-09-03T16:53:34;4.30;;;2.60;;
36715;SDS011;22699;51.034;3.730;2022-09-03T16:59:40;4.03;;;2.20;;
36715;SDS011;22699;51.034;3.730;2022-09-03T17:07:46;3.03;;;2.72;;
36715;SDS011;22699;51.034;3.730;2022-09-03T17:16:46;6.15;;;2.60;;
36715;SDS011;22699;51.034;3.730;2022-09-03T17:24:30;3.20;;;2.90;;
36715;SDS011;22699;51.034;3.730;2022-09-03T17:30:10;2.88;;;2.45;;
36715;SDS011;22699;51.034;3.730;2022-09-03T17:33:05;4.53;;;2.55;;
36715;SDS011;22699;51.034;3.730;2022-09-03T17:36:20;2.67;;;2.33;;
36715;SDS011;22699;51.034;3.730;2022-09-03T17:44:04;3.08;;;2.38;;
36715;SDS011;22699;51.034;3.730;2022-09-03T17:46:55;2.60;;;2.40;;
36715;SDS011;22699;51.034;3.730;2022-09-03T17:49:44;2.50;;;2.30;;
36715;SDS011;22699;51.034;3.730;2022-09-03T17:52:27;5.07;;;2.95;;
36715;SDS011;22699;51.034;3.730;2022-09-03T17:55:11;5.13;;;4.28;;
36715;SDS011;22699;51.034;3.730;2022-09-03T17:57:49;4.00;;;2.60;;
36715;SDS011;22699;51.034;3.730;2022-09-03T18:00:23;2.42;;;2.00;;
36715;SDS011;22699;51.034;3.730;2022-09-03T18:03:10;3.00;;;1.80;;
36715;SDS011;22699;51.034;3.730;2022-09-03T18:05:46;2.38;;;2.15;;
36715;SDS011;22699;51.034;3.730;2022-09-03T18:08:23;1.60;;;1.50;;
36715;SDS011;22699;51.034;3.730;2022-09-03T18:11:10;2.63;;;1.60;;
36715;SDS011;22699;51.034;3.730;2022-09-03T18:16:38;2.40;;;1.70;;
36715;SDS011;22699;51.034;3.730;2022-09-03T18:22:21;1.67;;;1.58;;
36715;SDS011;22699;51.034;3.730;2022-09-03T18:25:11;3.80;;;2.00;;
36715;SDS011;22699;51.034;3.730;2022-09-03T18:27:59;3.72;;;2.10;;
36715;SDS011;22699;51.034;3.730;2022-09-03T18:30:48;3.30;;;1.60;;
36715;SDS011;22699;51.034;3.730;2022-09-03T18:33:36;2.88;;;1.77;;
36715;SDS011;22699;51.034;3.730;2022-09-03T18:36:20;1.70;;;1.60;;
36715;SDS011;22699;51.034;3.730;2022-09-03T18:39:22;3.72;;;2.28;;
36715;SDS011;22699;51.034;3.730;2022-09-03T18:42:15;2.00;;;1.80;;
36715;SDS011;22699;51.034;3.730;2022-09-03T18:48:23;2.17;;;1.77;;
36715;SDS011;22699;51.034;3.730;2022-09-03T18:51:13;3.15;;;2.17;;
36715;SDS011;22699;51.034;3.730;2022-09-03T18:57:06;14.15;;;11.65;;
36715;SDS011;22699;51.034;3.730;2022-09-03T19:00:10;4.75;;;3.33;;
36715;SDS011;22699;51.034;3.730;2022-09-03T19:21:35;3.42;;;2.45;;
36715;SDS011;22699;51.034;3.730;2022-09-03T19:24:27;3.55;;;2.90;;
36715;SDS011;22699;51.034;3.730;2022-09-03T19:33:46;5.00;;;4.43;;
36715;SDS011;22699;51.034;3.730;2022-09-03T19:52:54;5.30;;;4.63;;
36715;SDS011;22699;51.034;3.730;2022-09-03T19:55:54;6.47;;;4.65;;
36715;SDS011;22699;51.034;3.730;2022-09-03T19:58:40;4.47;;;4.00;;
36715;SDS011;22699;51.034;3.730;2022-09-03T20:01:35;6.03;;;4.63;;
36715;SDS011;22699;51.034;3.730;2022-09-03T20:07:13;6.60;;;4.50;;
36715;SDS011;22699;51.034;3.730;2022-09-03T20:10:00;5.43;;;4.78;;
36715;SDS011;22699;51.034;3.730;2022-09-03T20:15:19;8.18;;;4.25;;
36715;SDS011;22699;51.034;3.730;2022-09-03T20:23:16;7.15;;;4.32;;
36715;SDS011;22699;51.034;3.730;2022-09-03T20:31:24;6.25;;;5.50;;
36715;SDS011;22699;51.034;3.730;2022-09-03T20:42:48;5.47;;;4.82;;
36715;SDS011;22699;51.034;3.730;2022-09-03T20:45:25;5.93;;;4.63;;
36715;SDS011;22699;51.034;3.730;2022-09-03T20:48:11;5.53;;;4.95;;